sensor_id;sensor_type;location;lat;lon;timestamp;pressure;altitude;pressure_sealevel;temperature;humidity
18533;BME280;9396;51.510;11.934;2024-03-22T00:01:42;101131.50;;;8.58;100.00
18533;BME280;9396;51.510;11.934;2024-03-22T00:04:08;101132.22;;;8.60;100.00
18533;BME280;9396;51.510;11.934;2024-03-22T00:06:34;101134.88;;;8.60;100.00
18533;BME280;9396;51.510;11.934;2024-03-22T00:09:00;101134.88;;;8.60;100.00
18533;BME280;9396;51.510;11.934;2024-03-22T00:11:26;101130.28;;;8.62;100.00
18533;BME280;9396;51.510;11.934;2024-03-22T00:13:52;101121.34;;;8.63;100.00
18533;BME280;9396;51.510;11.934;2024-03-22T00:16:18;101121.13;;;8.67;100.00
18533;BME280;9396;51.510;11.934;2024-03-22T00:18:46;101107.75;;;8.68;100.00
18533;BME280;9396;51.510;11.934;2024-03-22T00:21:11;101110.13;;;8.71;100.00
18533;BME280;9396;51.510;11.934;2024-03-22T00:23:38;101110.72;;;8.75;100.00
18533;BME280;9396;51.510;11.934;2024-03-22T00:26:04;101108.78;;;8.77;100.00
18533;BME280;9396;51.510;11.934;2024-03-22T00:28:30;101117.47;;;8.79;100.00
18533;BME280;9396;51.510;11.934;2024-03-22T00:30:56;101107.72;;;8.79;100.00
18533;BME280;9396;51.510;11.934;2024-03-22T00:33:22;101107.81;;;8.78;100.00
18533;BME280;9396;51.510;11.934;2024-03-22T00:35:49;101095.53;;;8.77;100.00
18533;BME280;9396;51.510;11.934;2024-03-22T00:38:16;101105.88;;;8.80;100.00
18533;BME280;9396;51.510;11.934;2024-03-22T00:40:41;101098.91;;;8.79;100.00
18533;BME280;9396;51.510;11.934;2024-03-22T00:43:08;101087.56;;;8.77;100.00
18533;BME280;9396;51.510;11.934;2024-03-22T00:45:34;101088.56;;;8.76;99.90
18533;BME280;9396;51.510;11.934;2024-03-22T00:48:00;101082.00;;;8.80;99.79
18533;BME280;9396;51.510;11.934;2024-03-22T00:50:26;101075.88;;;8.79;99.63
18533;BME280;9396;51.510;11.934;2024-03-22T00:52:56;101073.94;;;8.81;99.69
18533;BME280;9396;51.510;11.934;2024-03-22T00:55:21;101073.81;;;8.83;99.83
18533;BME280;9396;51.510;11.934;2024-03-22T00:57:48;101068.53;;;8.83;99.80
18533;BME280;9396;51.510;11.934;2024-03-22T01:00:14;101061.66;;;8.80;99.50
18533;BME280;9396;51.510;11.934;2024-03-22T01:02:41;101059.13;;;8.79;99.44
18533;BME280;9396;51.510;11.934;2024-03-22T01:05:07;101051.88;;;8.81;99.31
18533;BME280;9396;51.510;11.934;2024-03-22T01:07:35;101054.41;;;8.82;98.93
18533;BME280;9396;51.510;11.934;2024-03-22T01:10:03;101050.19;;;8.80;99.61
18533;BME280;9396;51.510;11.934;2024-03-22T01:12:29;101061.50;;;8.82;99.50
18533;BME280;9396;51.510;11.934;2024-03-22T01:14:55;101052.69;;;8.81;99.18
18533;BME280;9396;51.510;11.934;2024-03-22T01:17:21;101046.72;;;8.79;98.71
18533;BME280;9396;51.510;11.934;2024-03-22T01:19:47;101044.41;;;8.75;98.81
18533;BME280;9396;51.510;11.934;2024-03-22T01:22:14;101040.91;;;8.74;98.86
18533;BME280;9396;51.510;11.934;2024-03-22T01:24:39;101031.41;;;8.72;98.94
18533;BME280;9396;51.510;11.934;2024-03-22T01:27:07;101030.69;;;8.70;98.79
18533;BME280;9396;51.510;11.934;2024-03-22T01:29:32;101028.31;;;8.67;98.95
18533;BME280;9396;51.510;11.934;2024-03-22T01:31:59;101022.28;;;8.64;98.81
18533;BME280;9396;51.510;11.934;2024-03-22T01:34:24;101021.56;;;8.62;98.92
18533;BME280;9396;51.510;11.934;2024-03-22T01:36:51;101014.56;;;8.61;98.34
18533;BME280;9396;51.510;11.934;2024-03-22T01:39:18;101012.03;;;8.60;98.63
18533;BME280;9396;51.510;11.934;2024-03-22T01:41:46;101006.88;;;8.58;98.65
18533;BME280;9396;51.510;11.934;2024-03-22T01:44:13;101007.97;;;8.56;98.67
18533;BME280;9396;51.510;11.934;2024-03-22T01:46:40;101010.03;;;8.52;98.56
18533;BME280;9396;51.510;11.934;2024-03-22T01:49:08;101007.63;;;8.49;98.26
18533;BME280;9396;51.510;11.934;2024-03-22T01:51:35;101006.22;;;8.45;98.55
18533;BME280;9396;51.510;11.934;2024-03-22T01:54:02;101005.50;;;8.43;98.22
18533;BME280;9396;51.510;11.934;2024-03-22T01:56:29;101000.81;;;8.36;98.78
18533;BME280;9396;51.510;11.934;2024-03-22T01:58:56;101008.03;;;8.34;98.57
18533;BME280;9396;51.510;11.934;2024-03-22T02:01:24;101002.03;;;8.32;98.94
18533;BME280;9396;51.510;11.934;2024-03-22T02:03:51;100991.69;;;8.29;98.47
18533;BME280;9396;51.510;11.934;2024-03-22T02:06:17;100986.63;;;8.04;98.97
18533;BME280;9396;51.510;11.934;2024-03-22T02:08:43;100988.09;;;8.08;98.87
18533;BME280;9396;51.510;11.934;2024-03-22T02:11:10;100984.19;;;8.12;99.16
18533;BME280;9396;51.510;11.934;2024-03-22T02:13:35;100982.41;;;8.12;99.43
18533;BME280;9396;51.510;11.934;2024-03-22T02:16:02;100972.53;;;8.14;99.44
18533;BME280;9396;51.510;11.934;2024-03-22T02:18:29;100973.97;;;8.18;100.00
18533;BME280;9396;51.510;11.934;2024-03-22T02:20:56;100977.47;;;8.08;100.00
18533;BME280;9396;51.510;11.934;2024-03-22T02:23:30;100981.69;;;7.99;100.00
18533;BME280;9396;51.510;11.934;2024-03-22T02:25:57;100990.63;;;7.76;100.00
18533;BME280;9396;51.510;11.934;2024-03-22T02:28:22;100989.22;;;7.83;100.00
18533;BME280;9396;51.510;11.934;2024-03-22T02:30:49;100986.06;;;7.89;100.00
18533;BME280;9396;51.510;11.934;2024-03-22T02:33:14;100977.03;;;7.92;100.00
18533;BME280;9396;51.510;11.934;2024-03-22T02:35:41;100977.75;;;7.94;100.00
18533;BME280;9396;51.510;11.934;2024-03-22T02:38:07;100966.78;;;7.98;100.00
18533;BME280;9396;51.510;11.934;2024-03-22T02:40:35;100958.69;;;8.00;100.00
18533;BME280;9396;51.510;11.934;2024-03-22T02:43:00;100953.34;;;7.57;100.00
18533;BME280;9396;51.510;11.934;2024-03-22T02:45:27;100962.59;;;7.63;100.00
18533;BME280;9396;51.510;11.934;2024-03-22T02:47:52;100957.06;;;7.77;100.00
18533;BME280;9396;51.510;11.934;2024-03-22T02:50:19;100954.06;;;7.81;100.00
18533;BME280;9396;51.510;11.934;2024-03-22T02:52:44;100942.72;;;7.90;100.00
18533;BME280;9396;51.510;11.934;2024-03-22T02:55:11;100933.06;;;8.00;100.00
18533;BME280;9396;51.510;11.934;2024-03-22T02:57:38;100926.28;;;8.07;100.00
18533;BME280;9396;51.510;11.934;2024-03-22T03:00:05;100927.22;;;8.17;100.00
18533;BME280;9396;51.510;11.934;2024-03-22T03:02:31;100929.16;;;8.26;100.00
18533;BME280;9396;51.510;11.934;2024-03-22T03:04:57;100928.66;;;8.32;100.00
18533;BME280;9396;51.510;11.934;2024-03-22T03:07:23;100932.03;;;8.34;100.00
18533;BME280;9396;51.510;11.934;2024-03-22T03:09:50;100926.16;;;8.09;100.00
18533;BME280;9396;51.510;11.934;2024-03-22T03:12:15;100922.19;;;8.25;100.00
18533;BME280;9396;51.510;11.934;2024-03-22T03:14:43;100921.97;;;8.06;100.00
18533;BME280;9396;51.510;11.934;2024-03-22T03:17:09;100915.38;;;8.01;100.00
18533;BME280;9396;51.510;11.934;2024-03-22T03:19:36;100910.16;;;8.10;100.00
18533;BME280;9396;51.510;11.934;2024-03-22T03:22:01;100916.13;;;8.23;100.00
18533;BME280;9396;51.510;11.934;2024-03-22T03:24:28;100910.22;;;8.31;100.00
18533;BME280;9396;51.510;11.934;2024-03-22T03:26:54;100909.34;;;8.41;100.00
18533;BME280;9396;51.510;11.934;2024-03-22T03:29:20;100892.22;;;8.45;100.00
18533;BME280;9396;51.510;11.934;2024-03-22T03:31:47;100894.34;;;8.51;100.00
18533;BME280;9396;51.510;11.934;2024-03-22T03:34:14;100897.56;;;8.55;100.00
18533;BME280;9396;51.510;11.934;2024-03-22T03:36:39;100891.91;;;8.59;100.00
18533;BME280;9396;51.510;11.934;2024-03-22T03:39:06;100888.13;;;8.62;100.00
18533;BME280;9396;51.510;11.934;2024-03-22T03:41:31;100882.69;;;8.63;100.00
18533;BME280;9396;51.510;11.934;2024-03-22T03:43:58;100872.81;;;8.65;100.00
18533;BME280;9396;51.510;11.934;2024-03-22T03:46:23;100863.41;;;8.61;100.00
18533;BME280;9396;51.510;11.934;2024-03-22T03:48:51;100867.50;;;8.65;100.00
18533;BME280;9396;51.510;11.934;2024-03-22T03:51:17;100868.84;;;8.60;100.00
18533;BME280;9396;51.510;11.934;2024-03-22T03:53:43;100863.97;;;8.55;100.00
18533;BME280;9396;51.510;11.934;2024-03-22T03:56:09;100861.81;;;8.49;99.84
18533;BME280;9396;51.510;11.934;2024-03-22T03:58:35;100853.47;;;8.33;99.85
18533;BME280;9396;51.510;11.934;2024-03-22T04:01:05;100846.38;;;8.34;99.66
18533;BME280;9396;51.510;11.934;2024-03-22T04:03:31;100856.13;;;8.33;100.00
18533;BME280;9396;51.510;11.934;2024-03-22T04:05:59;100858.47;;;8.16;100.00
18533;BME280;9396;51.510;11.934;2024-03-22T04:08:26;100856.06;;;8.24;100.00
18533;BME280;9396;51.510;11.934;2024-03-22T04:10:52;100864.66;;;8.37;100.00
18533;BME280;9396;51.510;11.934;2024-03-22T04:13:18;100851.41;;;8.37;100.00
18533;BME280;9396;51.510;11.934;2024-03-22T04:15:44;100841.13;;;8.43;100.00
18533;BME280;9396;51.510;11.934;2024-03-22T04:18:10;100824.69;;;8.49;100.00
18533;BME280;9396;51.510;11.934;2024-03-22T04:20:36;100833.09;;;8.54;100.00
18533;BME280;9396;51.510;11.934;2024-03-22T04:23:04;100825.22;;;8.43;100.00
18533;BME280;9396;51.510;11.934;2024-03-22T04:25:29;100824.25;;;8.24;100.00
18533;BME280;9396;51.510;11.934;2024-03-22T04:27:56;100818.59;;;8.17;100.00
18533;BME280;9396;51.510;11.934;2024-03-22T04:30:21;100808.38;;;8.24;100.00
18533;BME280;9396;51.510;11.934;2024-03-22T04:32:48;100809.13;;;8.35;100.00
18533;BME280;9396;51.510;11.934;2024-03-22T04:35:13;100809.84;;;8.37;100.00
18533;BME280;9396;51.510;11.934;2024-03-22T04:37:40;100806.75;;;8.32;100.00
18533;BME280;9396;51.510;11.934;2024-03-22T04:40:10;100807.19;;;8.37;100.00
18533;BME280;9396;51.510;11.934;2024-03-22T04:42:36;100802.53;;;8.30;100.00
18533;BME280;9396;51.510;11.934;2024-03-22T04:45:02;100800.72;;;8.30;100.00
18533;BME280;9396;51.510;11.934;2024-03-22T04:47:29;100800.66;;;8.41;100.00
18533;BME280;9396;51.510;11.934;2024-03-22T04:49:54;100785.91;;;8.48;100.00
18533;BME280;9396;51.510;11.934;2024-03-22T04:52:21;100791.78;;;8.52;100.00
18533;BME280;9396;51.510;11.934;2024-03-22T04:54:47;100778.84;;;8.58;100.00
18533;BME280;9396;51.510;11.934;2024-03-22T04:57:15;100779.28;;;8.63;100.00
18533;BME280;9396;51.510;11.934;2024-03-22T04:59:40;100788.09;;;8.64;100.00
18533;BME280;9396;51.510;11.934;2024-03-22T05:02:07;100787.78;;;8.57;100.00
18533;BME280;9396;51.510;11.934;2024-03-22T05:04:32;100784.00;;;8.60;100.00
18533;BME280;9396;51.510;11.934;2024-03-22T05:06:59;100780.28;;;8.62;100.00
18533;BME280;9396;51.510;11.934;2024-03-22T05:09:24;100777.41;;;8.54;100.00
18533;BME280;9396;51.510;11.934;2024-03-22T05:11:51;100782.06;;;8.62;100.00
18533;BME280;9396;51.510;11.934;2024-03-22T05:14:19;100781.56;;;8.68;100.00
18533;BME280;9396;51.510;11.934;2024-03-22T05:16:46;100782.13;;;8.72;100.00
18533;BME280;9396;51.510;11.934;2024-03-22T05:19:11;100778.50;;;8.73;100.00
18533;BME280;9396;51.510;11.934;2024-03-22T05:21:38;100776.53;;;8.75;100.00
18533;BME280;9396;51.510;11.934;2024-03-22T05:24:03;100776.53;;;8.75;100.00
18533;BME280;9396;51.510;11.934;2024-03-22T05:26:30;100781.56;;;8.78;100.00
18533;BME280;9396;51.510;11.934;2024-03-22T05:29:01;100779.91;;;8.77;100.00
18533;BME280;9396;51.510;11.934;2024-03-22T05:31:29;100778.81;;;8.79;100.00
18533;BME280;9396;51.510;11.934;2024-03-22T05:33:54;100771.53;;;8.81;100.00
18533;BME280;9396;51.510;11.934;2024-03-22T05:36:21;100768.50;;;8.86;100.00
18533;BME280;9396;51.510;11.934;2024-03-22T05:38:46;100775.47;;;8.87;100.00
18533;BME280;9396;51.510;11.934;2024-03-22T05:41:13;100772.66;;;8.79;100.00
18533;BME280;9396;51.510;11.934;2024-03-22T05:43:38;100763.34;;;8.84;100.00
18533;BME280;9396;51.510;11.934;2024-03-22T05:46:05;100758.47;;;8.89;100.00
18533;BME280;9396;51.510;11.934;2024-03-22T05:48:32;100751.78;;;8.95;100.00
18533;BME280;9396;51.510;11.934;2024-03-22T05:50:58;100756.53;;;8.91;100.00
18533;BME280;9396;51.510;11.934;2024-03-22T05:53:24;100755.38;;;8.84;100.00
18533;BME280;9396;51.510;11.934;2024-03-22T05:55:50;100757.66;;;8.98;100.00
18533;BME280;9396;51.510;11.934;2024-03-22T05:58:16;100756.72;;;9.09;100.00
18533;BME280;9396;51.510;11.934;2024-03-22T06:00:43;100755.91;;;9.18;100.00
18533;BME280;9396;51.510;11.934;2024-03-22T06:03:08;100742.78;;;9.26;100.00
18533;BME280;9396;51.510;11.934;2024-03-22T06:05:36;100744.75;;;9.33;100.00
18533;BME280;9396;51.510;11.934;2024-03-22T06:08:04;100735.69;;;9.36;100.00
18533;BME280;9396;51.510;11.934;2024-03-22T06:10:31;100739.72;;;9.40;100.00
18533;BME280;9396;51.510;11.934;2024-03-22T06:12:57;100734.00;;;9.44;100.00
18533;BME280;9396;51.510;11.934;2024-03-22T06:15:23;100730.09;;;9.39;99.92
18533;BME280;9396;51.510;11.934;2024-03-22T06:17:49;100721.69;;;9.43;99.55
18533;BME280;9396;51.510;11.934;2024-03-22T06:20:16;100718.63;;;9.48;99.71
18533;BME280;9396;51.510;11.934;2024-03-22T06:22:43;100725.91;;;9.55;99.50
18533;BME280;9396;51.510;11.934;2024-03-22T06:25:09;100719.22;;;9.61;99.68
18533;BME280;9396;51.510;11.934;2024-03-22T06:27:35;100709.69;;;9.58;99.60
18533;BME280;9396;51.510;11.934;2024-03-22T06:30:01;100713.59;;;9.64;99.58
18533;BME280;9396;51.510;11.934;2024-03-22T06:32:28;100704.94;;;9.71;99.46
18533;BME280;9396;51.510;11.934;2024-03-22T06:34:55;100716.13;;;9.75;99.16
18533;BME280;9396;51.510;11.934;2024-03-22T06:37:20;100709.13;;;9.74;98.92
18533;BME280;9396;51.510;11.934;2024-03-22T06:39:48;100696.53;;;9.86;98.64
18533;BME280;9396;51.510;11.934;2024-03-22T06:42:14;100686.03;;;9.94;98.51
18533;BME280;9396;51.510;11.934;2024-03-22T06:44:40;100691.47;;;10.02;98.39
18533;BME280;9396;51.510;11.934;2024-03-22T06:47:06;100687.53;;;10.06;98.58
18533;BME280;9396;51.510;11.934;2024-03-22T06:49:33;100688.00;;;10.11;98.47
18533;BME280;9396;51.510;11.934;2024-03-22T06:51:58;100688.41;;;9.97;98.97
18533;BME280;9396;51.510;11.934;2024-03-22T06:54:25;100687.69;;;10.04;99.28
18533;BME280;9396;51.510;11.934;2024-03-22T06:56:52;100689.63;;;10.02;99.38
18533;BME280;9396;51.510;11.934;2024-03-22T06:59:19;100689.81;;;9.91;99.64
18533;BME280;9396;51.510;11.934;2024-03-22T07:01:44;100688.97;;;10.00;99.25
18533;BME280;9396;51.510;11.934;2024-03-22T07:04:11;100691.63;;;10.10;99.23
18533;BME280;9396;51.510;11.934;2024-03-22T07:06:36;100687.25;;;10.18;99.02
18533;BME280;9396;51.510;11.934;2024-03-22T07:09:03;100677.72;;;10.25;99.09
18533;BME280;9396;51.510;11.934;2024-03-22T07:11:29;100679.66;;;10.33;99.09
18533;BME280;9396;51.510;11.934;2024-03-22T07:13:56;100676.28;;;10.31;99.26
18533;BME280;9396;51.510;11.934;2024-03-22T07:16:22;100679.66;;;10.33;98.78
18533;BME280;9396;51.510;11.934;2024-03-22T07:18:48;100678.53;;;10.35;98.86
18533;BME280;9396;51.510;11.934;2024-03-22T07:21:14;100670.09;;;10.40;99.75
18533;BME280;9396;51.510;11.934;2024-03-22T07:23:41;100671.28;;;10.28;99.83
18533;BME280;9396;51.510;11.934;2024-03-22T07:26:07;100680.19;;;10.36;100.00
18533;BME280;9396;51.510;11.934;2024-03-22T07:28:33;100681.06;;;10.27;100.00
18533;BME280;9396;51.510;11.934;2024-03-22T07:31:00;100685.13;;;10.31;100.00
18533;BME280;9396;51.510;11.934;2024-03-22T07:33:27;100685.25;;;10.39;100.00
18533;BME280;9396;51.510;11.934;2024-03-22T07:35:52;100681.03;;;10.46;100.00
18533;BME280;9396;51.510;11.934;2024-03-22T07:38:19;100677.94;;;10.41;100.00
18533;BME280;9396;51.510;11.934;2024-03-22T07:40:45;100669.53;;;10.46;100.00
18533;BME280;9396;51.510;11.934;2024-03-22T07:43:11;100669.53;;;10.46;100.00
18533;BME280;9396;51.510;11.934;2024-03-22T07:45:38;100664.25;;;10.36;100.00
18533;BME280;9396;51.510;11.934;2024-03-22T07:48:07;100662.97;;;10.40;100.00
18533;BME280;9396;51.510;11.934;2024-03-22T07:50:32;100672.53;;;10.33;100.00
18533;BME280;9396;51.510;11.934;2024-03-22T07:52:59;100659.06;;;10.44;100.00
18533;BME280;9396;51.510;11.934;2024-03-22T07:55:25;100662.66;;;10.53;100.00
18533;BME280;9396;51.510;11.934;2024-03-22T07:57:51;100664.97;;;10.65;99.58
18533;BME280;9396;51.510;11.934;2024-03-22T08:00:17;100662.72;;;10.61;99.58
18533;BME280;9396;51.510;11.934;2024-03-22T08:02:44;100667.50;;;10.57;98.70
18533;BME280;9396;51.510;11.934;2024-03-22T08:05:11;100665.50;;;10.69;99.66
18533;BME280;9396;51.510;11.934;2024-03-22T08:07:37;100672.75;;;10.76;99.31
18533;BME280;9396;51.510;11.934;2024-03-22T08:10:03;100671.19;;;10.84;99.18
18533;BME280;9396;51.510;11.934;2024-03-22T08:12:30;100666.28;;;10.79;99.06
18533;BME280;9396;51.510;11.934;2024-03-22T08:14:55;100666.81;;;10.82;99.62
18533;BME280;9396;51.510;11.934;2024-03-22T08:17:22;100660.31;;;10.95;99.60
18533;BME280;9396;51.510;11.934;2024-03-22T08:19:47;100646.38;;;10.83;98.66
18533;BME280;9396;51.510;11.934;2024-03-22T08:22:15;100655.00;;;10.95;98.62
18533;BME280;9396;51.510;11.934;2024-03-22T08:24:41;100644.47;;;10.93;99.18
18533;BME280;9396;51.510;11.934;2024-03-22T08:27:07;100645.44;;;11.02;98.36
18533;BME280;9396;51.510;11.934;2024-03-22T08:29:33;100641.47;;;11.06;100.00
18533;BME280;9396;51.510;11.934;2024-03-22T08:31:59;100640.19;;;11.10;98.56
18533;BME280;9396;51.510;11.934;2024-03-22T08:34:27;100635.00;;;11.08;98.61
18533;BME280;9396;51.510;11.934;2024-03-22T08:36:54;100630.28;;;11.02;97.88
18533;BME280;9396;51.510;11.934;2024-03-22T08:39:21;100621.53;;;11.10;97.90
18533;BME280;9396;51.510;11.934;2024-03-22T08:41:48;100614.56;;;11.09;97.53
18533;BME280;9396;51.510;11.934;2024-03-22T08:44:14;100614.41;;;11.10;97.71
18533;BME280;9396;51.510;11.934;2024-03-22T08:46:40;100612.81;;;11.17;97.95
18533;BME280;9396;51.510;11.934;2024-03-22T08:49:06;100618.03;;;11.27;98.41
18533;BME280;9396;51.510;11.934;2024-03-22T08:51:32;100617.91;;;11.28;98.48
18533;BME280;9396;51.510;11.934;2024-03-22T08:53:58;100608.47;;;11.34;97.38
18533;BME280;9396;51.510;11.934;2024-03-22T08:56:27;100617.44;;;11.33;96.99
18533;BME280;9396;51.510;11.934;2024-03-22T08:58:52;100611.25;;;11.32;96.92
18533;BME280;9396;51.510;11.934;2024-03-22T09:01:19;100605.16;;;11.40;96.86
18533;BME280;9396;51.510;11.934;2024-03-22T09:03:44;100601.22;;;11.44;96.56
18533;BME280;9396;51.510;11.934;2024-03-22T09:06:11;100595.94;;;11.52;96.36
18533;BME280;9396;51.510;11.934;2024-03-22T09:08:37;100578.97;;;11.53;95.24
18533;BME280;9396;51.510;11.934;2024-03-22T09:11:04;100576.59;;;11.50;95.99
18533;BME280;9396;51.510;11.934;2024-03-22T09:13:31;100564.56;;;11.63;95.17
18533;BME280;9396;51.510;11.934;2024-03-22T09:15:59;100573.13;;;11.67;95.45
18533;BME280;9396;51.510;11.934;2024-03-22T09:18:25;100568.50;;;11.77;95.95
18533;BME280;9396;51.510;11.934;2024-03-22T09:20:52;100563.22;;;11.85;94.74
18533;BME280;9396;51.510;11.934;2024-03-22T09:23:18;100558.09;;;11.92;95.25
18533;BME280;9396;51.510;11.934;2024-03-22T09:25:45;100558.78;;;11.94;94.30
18533;BME280;9396;51.510;11.934;2024-03-22T09:28:11;100570.47;;;12.01;95.19
18533;BME280;9396;51.510;11.934;2024-03-22T09:30:39;100567.03;;;12.08;94.01
18533;BME280;9396;51.510;11.934;2024-03-22T09:33:05;100567.38;;;12.13;92.68
18533;BME280;9396;51.510;11.934;2024-03-22T09:35:33;100559.41;;;12.21;93.25
18533;BME280;9396;51.510;11.934;2024-03-22T09:37:59;100559.78;;;12.26;94.44
18533;BME280;9396;51.510;11.934;2024-03-22T09:40:25;100552.41;;;12.28;91.62
18533;BME280;9396;51.510;11.934;2024-03-22T09:42:53;100550.94;;;12.34;93.03
18533;BME280;9396;51.510;11.934;2024-03-22T09:45:18;100546.81;;;12.39;92.78
18533;BME280;9396;51.510;11.934;2024-03-22T09:47:48;100542.81;;;12.35;91.86
18533;BME280;9396;51.510;11.934;2024-03-22T09:50:15;100535.28;;;12.31;92.67
18533;BME280;9396;51.510;11.934;2024-03-22T09:52:42;100532.44;;;12.32;93.89
18533;BME280;9396;51.510;11.934;2024-03-22T09:55:09;100518.97;;;12.42;93.96
18533;BME280;9396;51.510;11.934;2024-03-22T09:57:38;100528.50;;;12.52;92.55
18533;BME280;9396;51.510;11.934;2024-03-22T10:00:06;100525.53;;;12.63;92.88
18533;BME280;9396;51.510;11.934;2024-03-22T10:02:34;100526.53;;;12.70;93.28
18533;BME280;9396;51.510;11.934;2024-03-22T10:05:01;100516.03;;;12.77;92.82
18533;BME280;9396;51.510;11.934;2024-03-22T10:07:28;100511.38;;;12.79;92.67
18533;BME280;9396;51.510;11.934;2024-03-22T10:09:57;100510.03;;;12.91;92.50
18533;BME280;9396;51.510;11.934;2024-03-22T10:12:24;100505.41;;;13.01;92.02
18533;BME280;9396;51.510;11.934;2024-03-22T10:14:52;100480.50;;;13.01;92.13
18533;BME280;9396;51.510;11.934;2024-03-22T10:17:20;100499.22;;;13.25;91.26
18533;BME280;9396;51.510;11.934;2024-03-22T10:19:47;100502.88;;;13.32;90.47
18533;BME280;9396;51.510;11.934;2024-03-22T10:22:16;100486.84;;;13.40;91.17
18533;BME280;9396;51.510;11.934;2024-03-22T10:24:42;100490.47;;;13.55;90.24
18533;BME280;9396;51.510;11.934;2024-03-22T10:27:09;100488.28;;;13.66;89.51
18533;BME280;9396;51.510;11.934;2024-03-22T10:29:35;100491.13;;;13.65;89.72
18533;BME280;9396;51.510;11.934;2024-03-22T10:32:02;100489.31;;;13.57;89.74
18533;BME280;9396;51.510;11.934;2024-03-22T10:34:28;100488.81;;;13.54;89.25
18533;BME280;9396;51.510;11.934;2024-03-22T10:36:55;100496.53;;;13.41;89.40
18533;BME280;9396;51.510;11.934;2024-03-22T10:39:22;100493.19;;;13.39;90.26
18533;BME280;9396;51.510;11.934;2024-03-22T10:41:49;100486.50;;;13.43;89.74
18533;BME280;9396;51.510;11.934;2024-03-22T10:44:15;100490.03;;;13.43;89.89
18533;BME280;9396;51.510;11.934;2024-03-22T10:46:44;100484.19;;;13.40;89.59
18533;BME280;9396;51.510;11.934;2024-03-22T10:49:14;100485.34;;;13.45;89.73
18533;BME280;9396;51.510;11.934;2024-03-22T10:51:42;100479.81;;;13.47;89.61
18533;BME280;9396;51.510;11.934;2024-03-22T10:54:10;100476.97;;;13.48;90.68
18533;BME280;9396;51.510;11.934;2024-03-22T10:56:41;100468.28;;;13.46;89.25
18533;BME280;9396;51.510;11.934;2024-03-22T10:59:07;100465.28;;;13.49;89.41
18533;BME280;9396;51.510;11.934;2024-03-22T11:01:34;100471.97;;;13.45;89.24
18533;BME280;9396;51.510;11.934;2024-03-22T11:04:05;100462.44;;;13.51;90.13
18533;BME280;9396;51.510;11.934;2024-03-22T11:06:36;100460.91;;;13.56;89.42
18533;BME280;9396;51.510;11.934;2024-03-22T11:09:02;100447.22;;;13.59;89.09
18533;BME280;9396;51.510;11.934;2024-03-22T11:11:30;100446.38;;;13.67;90.08
18533;BME280;9396;51.510;11.934;2024-03-22T11:13:57;100440.00;;;13.68;90.27
18533;BME280;9396;51.510;11.934;2024-03-22T11:16:24;100438.66;;;13.72;89.79
18533;BME280;9396;51.510;11.934;2024-03-22T11:18:49;100436.66;;;13.74;89.02
18533;BME280;9396;51.510;11.934;2024-03-22T11:21:16;100417.22;;;13.80;89.58
18533;BME280;9396;51.510;11.934;2024-03-22T11:23:45;100431.06;;;13.83;89.22
18533;BME280;9396;51.510;11.934;2024-03-22T11:26:12;100418.84;;;13.89;89.98
18533;BME280;9396;51.510;11.934;2024-03-22T11:28:37;100418.16;;;13.95;90.27
18533;BME280;9396;51.510;11.934;2024-03-22T11:31:05;100422.84;;;13.93;89.62
18533;BME280;9396;51.510;11.934;2024-03-22T11:33:31;100422.66;;;13.94;89.83
18533;BME280;9396;51.510;11.934;2024-03-22T11:35:58;100414.81;;;13.93;90.16
18533;BME280;9396;51.510;11.934;2024-03-22T11:38:24;100412.50;;;13.90;89.93
18533;BME280;9396;51.510;11.934;2024-03-22T11:40:52;100404.78;;;13.95;89.91
18533;BME280;9396;51.510;11.934;2024-03-22T11:43:18;100406.25;;;13.97;89.08
18533;BME280;9396;51.510;11.934;2024-03-22T11:45:45;100403.06;;;14.02;88.59
18533;BME280;9396;51.510;11.934;2024-03-22T11:48:12;100391.84;;;14.07;89.69
18533;BME280;9396;51.510;11.934;2024-03-22T11:50:39;100377.75;;;14.13;89.07
18533;BME280;9396;51.510;11.934;2024-03-22T11:53:05;100380.94;;;14.08;87.72
18533;BME280;9396;51.510;11.934;2024-03-22T11:55:32;100375.59;;;14.08;88.05
18533;BME280;9396;51.510;11.934;2024-03-22T11:57:57;100371.94;;;14.09;88.23
18533;BME280;9396;51.510;11.934;2024-03-22T12:00:24;100359.56;;;14.08;88.32
18533;BME280;9396;51.510;11.934;2024-03-22T12:02:50;100360.03;;;14.12;88.41
18533;BME280;9396;51.510;11.934;2024-03-22T12:05:18;100350.00;;;14.14;89.64
18533;BME280;9396;51.510;11.934;2024-03-22T12:07:44;100347.28;;;14.22;88.76
18533;BME280;9396;51.510;11.934;2024-03-22T12:10:11;100351.25;;;14.26;89.60
18533;BME280;9396;51.510;11.934;2024-03-22T12:12:36;100358.78;;;14.30;87.48
18533;BME280;9396;51.510;11.934;2024-03-22T12:15:04;100357.13;;;14.21;87.67
18533;BME280;9396;51.510;11.934;2024-03-22T12:17:29;100351.97;;;14.20;88.52
18533;BME280;9396;51.510;11.934;2024-03-22T12:19:56;100358.81;;;14.22;89.79
18533;BME280;9396;51.510;11.934;2024-03-22T12:22:23;100349.75;;;14.23;89.92
18533;BME280;9396;51.510;11.934;2024-03-22T12:24:51;100334.38;;;14.25;90.67
18533;BME280;9396;51.510;11.934;2024-03-22T12:27:16;100329.03;;;14.25;89.60
18533;BME280;9396;51.510;11.934;2024-03-22T12:29:43;100334.38;;;14.25;89.94
18533;BME280;9396;51.510;11.934;2024-03-22T12:32:09;100331.34;;;14.28;90.57
18533;BME280;9396;51.510;11.934;2024-03-22T12:34:35;100326.53;;;14.24;91.25
18533;BME280;9396;51.510;11.934;2024-03-22T12:37:01;100332.00;;;14.30;91.23
18533;BME280;9396;51.510;11.934;2024-03-22T12:39:29;100331.53;;;14.27;91.34
18533;BME280;9396;51.510;11.934;2024-03-22T12:41:55;100315.16;;;14.22;92.68
18533;BME280;9396;51.510;11.934;2024-03-22T12:44:21;100315.50;;;14.27;92.76
18533;BME280;9396;51.510;11.934;2024-03-22T12:46:47;100297.28;;;14.22;94.64